sensor_id;sensor_type;location;lat;lon;timestamp;temperature;humidity
19665;DHT22;9980;51.020;7.772;2023-03-01T00:01:39;-0.20;93.90
19665;DHT22;9980;51.020;7.772;2023-03-01T00:04:07;-0.20;94.00
19665;DHT22;9980;51.020;7.772;2023-03-01T00:06:33;-0.30;94.00
19665;DHT22;9980;51.020;7.772;2023-03-01T00:09:00;-0.30;94.00
19665;DHT22;9980;51.020;7.772;2023-03-01T00:11:29;-0.30;93.90
19665;DHT22;9980;51.020;7.772;2023-03-01T00:13:59;-0.40;93.90
19665;DHT22;9980;51.020;7.772;2023-03-01T00:16:34;-0.30;94.00
19665;DHT22;9980;51.020;7.772;2023-03-01T00:19:02;-0.40;94.00
19665;DHT22;9980;51.020;7.772;2023-03-01T00:21:29;-0.40;93.90
19665;DHT22;9980;51.020;7.772;2023-03-01T00:23:56;-0.40;94.10
19665;DHT22;9980;51.020;7.772;2023-03-01T00:26:25;-0.50;94.20
19665;DHT22;9980;51.020;7.772;2023-03-01T00:28:53;-0.50;94.20
19665;DHT22;9980;51.020;7.772;2023-03-01T00:31:24;-0.50;94.20
19665;DHT22;9980;51.020;7.772;2023-03-01T00:33:56;-0.50;94.30
19665;DHT22;9980;51.020;7.772;2023-03-01T00:36:26;-0.50;94.30
19665;DHT22;9980;51.020;7.772;2023-03-01T00:38:57;-0.50;94.60
19665;DHT22;9980;51.020;7.772;2023-03-01T00:41:25;-0.60;94.30
19665;DHT22;9980;51.020;7.772;2023-03-01T00:43:56;-0.60;94.40
19665;DHT22;9980;51.020;7.772;2023-03-01T00:46:25;-0.60;94.80
19665;DHT22;9980;51.020;7.772;2023-03-01T00:48:53;-0.60;94.50
19665;DHT22;9980;51.020;7.772;2023-03-01T00:51:26;-0.70;94.40
19665;DHT22;9980;51.020;7.772;2023-03-01T00:53:57;-0.70;94.50
19665;DHT22;9980;51.020;7.772;2023-03-01T00:56:26;-0.70;94.50
19665;DHT22;9980;51.020;7.772;2023-03-01T00:58:54;-0.70;94.50
19665;DHT22;9980;51.020;7.772;2023-03-01T01:01:24;-0.80;94.50
19665;DHT22;9980;51.020;7.772;2023-03-01T01:04:00;-0.80;94.60
19665;DHT22;9980;51.020;7.772;2023-03-01T01:06:33;-0.80;94.60
19665;DHT22;9980;51.020;7.772;2023-03-01T01:09:04;-0.80;94.70
19665;DHT22;9980;51.020;7.772;2023-03-01T01:11:33;-0.80;94.70
19665;DHT22;9980;51.020;7.772;2023-03-01T01:14:03;-0.90;94.70
19665;DHT22;9980;51.020;7.772;2023-03-01T01:16:30;-0.90;94.70
19665;DHT22;9980;51.020;7.772;2023-03-01T01:18:58;-0.90;94.80
19665;DHT22;9980;51.020;7.772;2023-03-01T01:21:26;-1.00;94.70
19665;DHT22;9980;51.020;7.772;2023-03-01T01:23:54;-1.00;94.60
19665;DHT22;9980;51.020;7.772;2023-03-01T01:26:29;-1.00;94.50
19665;DHT22;9980;51.020;7.772;2023-03-01T01:28:58;-1.00;94.60
19665;DHT22;9980;51.020;7.772;2023-03-01T01:31:27;-1.00;94.70
19665;DHT22;9980;51.020;7.772;2023-03-01T01:33:57;-1.10;94.70
19665;DHT22;9980;51.020;7.772;2023-03-01T01:36:25;-1.10;94.70
19665;DHT22;9980;51.020;7.772;2023-03-01T01:38:52;-1.10;94.60
19665;DHT22;9980;51.020;7.772;2023-03-01T01:41:20;-1.20;94.70
19665;DHT22;9980;51.020;7.772;2023-03-01T01:44:09;-1.20;94.70
19665;DHT22;9980;51.020;7.772;2023-03-01T01:47:06;-1.20;94.80
19665;DHT22;9980;51.020;7.772;2023-03-01T01:49:46;-1.20;94.90
19665;DHT22;9980;51.020;7.772;2023-03-01T01:52:41;-1.20;94.80
19665;DHT22;9980;51.020;7.772;2023-03-01T01:55:11;-1.30;94.80
19665;DHT22;9980;51.020;7.772;2023-03-01T01:57:49;-1.30;94.80
19665;DHT22;9980;51.020;7.772;2023-03-01T02:00:22;-1.30;94.90
19665;DHT22;9980;51.020;7.772;2023-03-01T02:02:57;-1.30;94.90
19665;DHT22;9980;51.020;7.772;2023-03-01T02:05:53;-1.40;94.90
19665;DHT22;9980;51.020;7.772;2023-03-01T02:08:36;-1.40;95.00
19665;DHT22;9980;51.020;7.772;2023-03-01T02:11:05;-1.40;94.90
19665;DHT22;9980;51.020;7.772;2023-03-01T02:13:34;-1.40;94.90
19665;DHT22;9980;51.020;7.772;2023-03-01T02:16:08;-1.40;94.90
19665;DHT22;9980;51.020;7.772;2023-03-01T02:18:38;-1.50;94.90
19665;DHT22;9980;51.020;7.772;2023-03-01T02:21:29;-1.50;94.90
19665;DHT22;9980;51.020;7.772;2023-03-01T02:27:16;-1.50;94.90
19665;DHT22;9980;51.020;7.772;2023-03-01T02:29:44;-1.60;94.90
19665;DHT22;9980;51.020;7.772;2023-03-01T02:32:14;-1.60;95.00
19665;DHT22;9980;51.020;7.772;2023-03-01T02:34:42;-1.60;95.00
19665;DHT22;9980;51.020;7.772;2023-03-01T02:37:13;-1.60;95.00
19665;DHT22;9980;51.020;7.772;2023-03-01T02:39:48;-1.70;95.00
19665;DHT22;9980;51.020;7.772;2023-03-01T02:42:27;-1.70;95.00
19665;DHT22;9980;51.020;7.772;2023-03-01T02:44:58;-1.70;95.00
19665;DHT22;9980;51.020;7.772;2023-03-01T02:47:25;-1.80;95.00
19665;DHT22;9980;51.020;7.772;2023-03-01T02:49:51;-1.80;94.90
19665;DHT22;9980;51.020;7.772;2023-03-01T02:52:43;-1.80;94.80
19665;DHT22;9980;51.020;7.772;2023-03-01T02:55:16;-1.80;94.80
19665;DHT22;9980;51.020;7.772;2023-03-01T02:57:46;-1.80;94.80
19665;DHT22;9980;51.020;7.772;2023-03-01T03:00:30;-1.90;94.80
19665;DHT22;9980;51.020;7.772;2023-03-01T03:03:03;-1.90;94.90
19665;DHT22;9980;51.020;7.772;2023-03-01T03:05:31;-1.90;94.90
19665;DHT22;9980;51.020;7.772;2023-03-01T03:08:00;-1.90;95.00
19665;DHT22;9980;51.020;7.772;2023-03-01T03:10:35;-1.90;95.00
19665;DHT22;9980;51.020;7.772;2023-03-01T03:13:09;-1.90;95.00
19665;DHT22;9980;51.020;7.772;2023-03-01T03:15:40;-2.00;95.10
19665;DHT22;9980;51.020;7.772;2023-03-01T03:18:11;-2.00;95.10
19665;DHT22;9980;51.020;7.772;2023-03-01T03:20:41;-2.00;95.00
19665;DHT22;9980;51.020;7.772;2023-03-01T03:23:09;-2.00;95.00
19665;DHT22;9980;51.020;7.772;2023-03-01T03:25:36;-2.10;95.00
19665;DHT22;9980;51.020;7.772;2023-03-01T03:28:06;-2.10;95.00
19665;DHT22;9980;51.020;7.772;2023-03-01T03:30:39;-2.10;95.00
19665;DHT22;9980;51.020;7.772;2023-03-01T03:33:08;-2.10;94.90
19665;DHT22;9980;51.020;7.772;2023-03-01T03:35:45;-2.10;94.90
19665;DHT22;9980;51.020;7.772;2023-03-01T03:38:15;-2.20;94.90
19665;DHT22;9980;51.020;7.772;2023-03-01T03:40:45;-2.20;94.90
19665;DHT22;9980;51.020;7.772;2023-03-01T03:43:22;-2.20;95.00
19665;DHT22;9980;51.020;7.772;2023-03-01T03:45:51;-2.20;95.20
19665;DHT22;9980;51.020;7.772;2023-03-01T03:48:19;-2.30;95.20
19665;DHT22;9980;51.020;7.772;2023-03-01T03:50:51;-2.30;95.40
19665;DHT22;9980;51.020;7.772;2023-03-01T03:53:21;-2.30;95.40
19665;DHT22;9980;51.020;7.772;2023-03-01T03:55:50;-2.30;95.30
19665;DHT22;9980;51.020;7.772;2023-03-01T03:58:20;-2.30;95.20
19665;DHT22;9980;51.020;7.772;2023-03-01T04:00:51;-2.40;95.10
19665;DHT22;9980;51.020;7.772;2023-03-01T04:03:23;-2.40;95.20
19665;DHT22;9980;51.020;7.772;2023-03-01T04:05:51;-2.40;95.20
19665;DHT22;9980;51.020;7.772;2023-03-01T04:08:21;-2.40;95.30
19665;DHT22;9980;51.020;7.772;2023-03-01T04:10:52;-2.40;95.30
19665;DHT22;9980;51.020;7.772;2023-03-01T04:13:23;-2.50;95.30
19665;DHT22;9980;51.020;7.772;2023-03-01T04:15:55;-2.50;95.30
19665;DHT22;9980;51.020;7.772;2023-03-01T04:18:23;-2.50;95.30
19665;DHT22;9980;51.020;7.772;2023-03-01T04:20:52;-2.50;95.30
19665;DHT22;9980;51.020;7.772;2023-03-01T04:23:21;-2.60;95.30
19665;DHT22;9980;51.020;7.772;2023-03-01T04:25:54;-2.60;95.40
19665;DHT22;9980;51.020;7.772;2023-03-01T04:28:25;-2.60;95.40
19665;DHT22;9980;51.020;7.772;2023-03-01T04:30:54;-2.60;95.30
19665;DHT22;9980;51.020;7.772;2023-03-01T04:33:24;-2.60;95.40
19665;DHT22;9980;51.020;7.772;2023-03-01T04:35:51;-2.70;95.40
19665;DHT22;9980;51.020;7.772;2023-03-01T04:38:19;-2.70;95.40
19665;DHT22;9980;51.020;7.772;2023-03-01T04:40:47;-2.70;95.30
19665;DHT22;9980;51.020;7.772;2023-03-01T04:43:14;-2.70;95.40
19665;DHT22;9980;51.020;7.772;2023-03-01T04:45:42;-2.70;95.50
19665;DHT22;9980;51.020;7.772;2023-03-01T04:48:09;-2.80;95.70
19665;DHT22;9980;51.020;7.772;2023-03-01T04:50:36;-2.80;96.00
19665;DHT22;9980;51.020;7.772;2023-03-01T04:53:03;-2.80;96.00
19665;DHT22;9980;51.020;7.772;2023-03-01T04:55:30;-2.80;96.00
19665;DHT22;9980;51.020;7.772;2023-03-01T04:57:57;-2.80;95.90
19665;DHT22;9980;51.020;7.772;2023-03-01T05:00:24;-2.80;95.80
19665;DHT22;9980;51.020;7.772;2023-03-01T05:02:54;-2.90;95.80
19665;DHT22;9980;51.020;7.772;2023-03-01T05:05:29;-2.90;95.70
19665;DHT22;9980;51.020;7.772;2023-03-01T05:08:00;-2.90;95.70
19665;DHT22;9980;51.020;7.772;2023-03-01T05:10:31;-2.90;95.60
19665;DHT22;9980;51.020;7.772;2023-03-01T05:13:02;-3.00;95.50
19665;DHT22;9980;51.020;7.772;2023-03-01T05:15:30;-3.00;95.40
19665;DHT22;9980;51.020;7.772;2023-03-01T05:17:59;-3.00;95.50
19665;DHT22;9980;51.020;7.772;2023-03-01T05:20:30;-3.00;95.40
19665;DHT22;9980;51.020;7.772;2023-03-01T05:22:59;-3.00;95.40
19665;DHT22;9980;51.020;7.772;2023-03-01T05:25:27;-3.00;95.50
19665;DHT22;9980;51.020;7.772;2023-03-01T05:27:54;-3.10;95.40
19665;DHT22;9980;51.020;7.772;2023-03-01T05:30:21;-3.10;95.40
19665;DHT22;9980;51.020;7.772;2023-03-01T05:32:49;-3.10;95.50
19665;DHT22;9980;51.020;7.772;2023-03-01T05:35:22;-3.10;95.50
19665;DHT22;9980;51.020;7.772;2023-03-01T05:37:50;-3.10;95.50
19665;DHT22;9980;51.020;7.772;2023-03-01T05:40:19;-3.20;95.50
19665;DHT22;9980;51.020;7.772;2023-03-01T05:42:52;-3.20;95.50
19665;DHT22;9980;51.020;7.772;2023-03-01T05:45:24;-3.20;95.40
19665;DHT22;9980;51.020;7.772;2023-03-01T05:47:53;-3.20;95.30
19665;DHT22;9980;51.020;7.772;2023-03-01T05:50:29;-3.20;95.30
19665;DHT22;9980;51.020;7.772;2023-03-01T05:53:05;-3.30;95.40
19665;DHT22;9980;51.020;7.772;2023-03-01T05:55:35;-3.30;95.50
19665;DHT22;9980;51.020;7.772;2023-03-01T05:58:04;-3.30;95.50
19665;DHT22;9980;51.020;7.772;2023-03-01T06:00:33;-3.30;95.50
19665;DHT22;9980;51.020;7.772;2023-03-01T06:03:01;-3.30;95.50
19665;DHT22;9980;51.020;7.772;2023-03-01T06:05:29;-3.30;95.50
19665;DHT22;9980;51.020;7.772;2023-03-01T06:07:59;-3.40;95.40
19665;DHT22;9980;51.020;7.772;2023-03-01T06:10:26;-3.40;95.60
19665;DHT22;9980;51.020;7.772;2023-03-01T06:12:54;-3.40;95.60
19665;DHT22;9980;51.020;7.772;2023-03-01T06:15:22;-3.40;96.00
19665;DHT22;9980;51.020;7.772;2023-03-01T06:17:49;-3.40;95.70
19665;DHT22;9980;51.020;7.772;2023-03-01T06:20:19;-3.40;95.80
19665;DHT22;9980;51.020;7.772;2023-03-01T06:22:48;-3.50;95.80
19665;DHT22;9980;51.020;7.772;2023-03-01T06:25:21;-3.50;95.80
19665;DHT22;9980;51.020;7.772;2023-03-01T06:27:50;-3.50;95.80
19665;DHT22;9980;51.020;7.772;2023-03-01T06:30:20;-3.50;95.80
19665;DHT22;9980;51.020;7.772;2023-03-01T06:32:48;-3.50;95.80
19665;DHT22;9980;51.020;7.772;2023-03-01T06:35:17;-3.50;95.90
19665;DHT22;9980;51.020;7.772;2023-03-01T06:37:46;-3.50;96.00
19665;DHT22;9980;51.020;7.772;2023-03-01T06:40:15;-3.50;96.00
19665;DHT22;9980;51.020;7.772;2023-03-01T06:42:47;-3.50;96.00
19665;DHT22;9980;51.020;7.772;2023-03-01T06:45:19;-3.50;96.00
19665;DHT22;9980;51.020;7.772;2023-03-01T06:47:47;-3.60;95.90
19665;DHT22;9980;51.020;7.772;2023-03-01T06:50:16;-3.50;96.00
19665;DHT22;9980;51.020;7.772;2023-03-01T06:52:43;-3.60;96.00
19665;DHT22;9980;51.020;7.772;2023-03-01T06:55:12;-3.50;96.20
19665;DHT22;9980;51.020;7.772;2023-03-01T06:57:39;-3.50;96.30
19665;DHT22;9980;51.020;7.772;2023-03-01T07:00:07;-3.50;96.40
19665;DHT22;9980;51.020;7.772;2023-03-01T07:02:34;-3.50;96.60
19665;DHT22;9980;51.020;7.772;2023-03-01T07:05:02;-3.50;96.80
19665;DHT22;9980;51.020;7.772;2023-03-01T07:07:29;-3.40;97.00
19665;DHT22;9980;51.020;7.772;2023-03-01T07:09:56;-3.40;97.20
19665;DHT22;9980;51.020;7.772;2023-03-01T07:12:23;-3.40;97.40
19665;DHT22;9980;51.020;7.772;2023-03-01T07:14:49;-3.30;97.60
19665;DHT22;9980;51.020;7.772;2023-03-01T07:17:16;-3.30;97.90
19665;DHT22;9980;51.020;7.772;2023-03-01T07:19:43;-3.20;98.40
19665;DHT22;9980;51.020;7.772;2023-03-01T07:22:11;-3.10;98.90
19665;DHT22;9980;51.020;7.772;2023-03-01T07:24:38;-3.00;99.30
19665;DHT22;9980;51.020;7.772;2023-03-01T07:27:05;-2.90;99.70
19665;DHT22;9980;51.020;7.772;2023-03-01T07:29:32;-2.80;99.90
19665;DHT22;9980;51.020;7.772;2023-03-01T07:31:59;-2.70;99.90
19665;DHT22;9980;51.020;7.772;2023-03-01T07:34:26;-2.60;99.90
19665;DHT22;9980;51.020;7.772;2023-03-01T07:36:52;-2.50;99.90
19665;DHT22;9980;51.020;7.772;2023-03-01T07:39:19;-2.40;99.90
19665;DHT22;9980;51.020;7.772;2023-03-01T07:41:46;-2.30;99.90
19665;DHT22;9980;51.020;7.772;2023-03-01T07:44:13;-2.20;99.90
19665;DHT22;9980;51.020;7.772;2023-03-01T07:46:41;-2.10;99.90
19665;DHT22;9980;51.020;7.772;2023-03-01T07:49:09;-2.00;99.90
19665;DHT22;9980;51.020;7.772;2023-03-01T07:51:36;-1.90;99.90
19665;DHT22;9980;51.020;7.772;2023-03-01T07:54:03;-1.80;99.90
19665;DHT22;9980;51.020;7.772;2023-03-01T07:56:30;-1.70;99.90
19665;DHT22;9980;51.020;7.772;2023-03-01T07:58:59;-1.60;99.90
19665;DHT22;9980;51.020;7.772;2023-03-01T08:01:26;-1.50;99.90
19665;DHT22;9980;51.020;7.772;2023-03-01T08:03:53;-1.40;99.90
19665;DHT22;9980;51.020;7.772;2023-03-01T08:06:20;-1.30;99.90
19665;DHT22;9980;51.020;7.772;2023-03-01T08:08:47;-1.10;99.90
19665;DHT22;9980;51.020;7.772;2023-03-01T08:11:14;-1.00;99.90
19665;DHT22;9980;51.020;7.772;2023-03-01T08:13:43;-0.90;99.90
19665;DHT22;9980;51.020;7.772;2023-03-01T08:16:13;-0.70;99.90
19665;DHT22;9980;51.020;7.772;2023-03-01T08:18:42;-0.60;99.90
19665;DHT22;9980;51.020;7.772;2023-03-01T08:21:15;-0.40;99.90
19665;DHT22;9980;51.020;7.772;2023-03-01T08:23:43;-0.20;99.90
19665;DHT22;9980;51.020;7.772;2023-03-01T08:26:17;-0.10;99.90
19665;DHT22;9980;51.020;7.772;2023-03-01T08:28:47;0.10;99.90
19665;DHT22;9980;51.020;7.772;2023-03-01T08:31:23;0.30;99.90
19665;DHT22;9980;51.020;7.772;2023-03-01T08:33:56;0.50;99.90
19665;DHT22;9980;51.020;7.772;2023-03-01T08:36:29;0.70;99.90
19665;DHT22;9980;51.020;7.772;2023-03-01T08:38:59;0.80;99.90
19665;DHT22;9980;51.020;7.772;2023-03-01T08:41:26;1.00;99.90
19665;DHT22;9980;51.020;7.772;2023-03-01T08:43:53;1.20;99.90
19665;DHT22;9980;51.020;7.772;2023-03-01T08:46:31;1.30;99.90
19665;DHT22;9980;51.020;7.772;2023-03-01T08:49:02;1.50;99.80
19665;DHT22;9980;51.020;7.772;2023-03-01T08:51:34;1.60;99.60
19665;DHT22;9980;51.020;7.772;2023-03-01T08:54:10;1.80;99.40
19665;DHT22;9980;51.020;7.772;2023-03-01T08:56:42;2.00;99.10
19665;DHT22;9980;51.020;7.772;2023-03-01T08:59:13;2.10;98.90
19665;DHT22;9980;51.020;7.772;2023-03-01T09:01:41;2.30;98.70
19665;DHT22;9980;51.020;7.772;2023-03-01T09:04:11;2.40;98.60
19665;DHT22;9980;51.020;7.772;2023-03-01T09:06:39;2.50;98.30
19665;DHT22;9980;51.020;7.772;2023-03-01T09:09:06;2.70;98.20
19665;DHT22;9980;51.020;7.772;2023-03-01T09:11:38;2.80;98.10
19665;DHT22;9980;51.020;7.772;2023-03-01T09:14:05;2.90;98.00
19665;DHT22;9980;51.020;7.772;2023-03-01T09:16:33;3.10;97.90
19665;DHT22;9980;51.020;7.772;2023-03-01T09:19:03;3.20;97.60
19665;DHT22;9980;51.020;7.772;2023-03-01T09:21:30;3.40;97.40
19665;DHT22;9980;51.020;7.772;2023-03-01T09:24:13;3.50;97.20
19665;DHT22;9980;51.020;7.772;2023-03-01T09:26:41;3.60;97.10
19665;DHT22;9980;51.020;7.772;2023-03-01T09:29:09;3.80;97.00
19665;DHT22;9980;51.020;7.772;2023-03-01T09:31:36;3.90;96.80
19665;DHT22;9980;51.020;7.772;2023-03-01T09:34:03;4.00;96.70
19665;DHT22;9980;51.020;7.772;2023-03-01T09:36:30;4.10;96.50
19665;DHT22;9980;51.020;7.772;2023-03-01T09:38:58;4.20;96.10
19665;DHT22;9980;51.020;7.772;2023-03-01T09:47:19;4.60;95.40
19665;DHT22;9980;51.020;7.772;2023-03-01T09:52:43;4.90;95.40
19665;DHT22;9980;51.020;7.772;2023-03-01T09:58:44;5.20;94.70
19665;DHT22;9980;51.020;7.772;2023-03-01T10:04:28;5.40;94.30
19665;DHT22;9980;51.020;7.772;2023-03-01T10:09:39;5.70;93.90
19665;DHT22;9980;51.020;7.772;2023-03-01T10:12:11;5.80;93.50
19665;DHT22;9980;51.020;7.772;2023-03-01T10:20:33;6.10;93.10
19665;DHT22;9980;51.020;7.772;2023-03-01T10:23:10;6.20;93.10
19665;DHT22;9980;51.020;7.772;2023-03-01T10:28:44;6.40;92.30
19665;DHT22;9980;51.020;7.772;2023-03-01T10:31:24;6.50;92.10
19665;DHT22;9980;51.020;7.772;2023-03-01T10:33:56;6.70;91.80
19665;DHT22;9980;51.020;7.772;2023-03-01T10:36:25;6.80;92.10
19665;DHT22;9980;51.020;7.772;2023-03-01T10:38:56;6.90;92.10
19665;DHT22;9980;51.020;7.772;2023-03-01T10:41:26;7.00;91.70
19665;DHT22;9980;51.020;7.772;2023-03-01T10:43:56;7.10;91.60
19665;DHT22;9980;51.020;7.772;2023-03-01T10:46:33;7.20;91.50
19665;DHT22;9980;51.020;7.772;2023-03-01T10:49:22;7.30;91.10
19665;DHT22;9980;51.020;7.772;2023-03-01T10:51:51;7.40;90.90
19665;DHT22;9980;51.020;7.772;2023-03-01T10:54:30;7.50;90.50
19665;DHT22;9980;51.020;7.772;2023-03-01T10:57:01;7.60;90.20
19665;DHT22;9980;51.020;7.772;2023-03-01T10:59:34;7.60;89.00
19665;DHT22;9980;51.020;7.772;2023-03-01T11:02:22;7.70;89.10
19665;DHT22;9980;51.020;7.772;2023-03-01T11:05:22;7.80;88.60
19665;DHT22;9980;51.020;7.772;2023-03-01T11:07:58;7.90;88.70
19665;DHT22;9980;51.020;7.772;2023-03-01T11:10:32;7.90;88.10
19665;DHT22;9980;51.020;7.772;2023-03-01T11:13:16;8.00;87.70
19665;DHT22;9980;51.020;7.772;2023-03-01T11:16:00;8.10;87.50
19665;DHT22;9980;51.020;7.772;2023-03-01T11:18:30;8.20;86.50
19665;DHT22;9980;51.020;7.772;2023-03-01T11:21:13;8.20;86.50
19665;DHT22;9980;51.020;7.772;2023-03-01T11:23:43;8.30;86.40
19665;DHT22;9980;51.020;7.772;2023-03-01T11:26:15;8.40;84.50
19665;DHT22;9980;51.020;7.772;2023-03-01T11:28:50;8.50;83.70
19665;DHT22;9980;51.020;7.772;2023-03-01T11:31:23;8.50;81.60
19665;DHT22;9980;51.020;7.772;2023-03-01T11:34:13;8.60;81.30
19665;DHT22;9980;51.020;7.772;2023-03-01T11:36:55;8.70;81.30
19665;DHT22;9980;51.020;7.772;2023-03-01T11:39:51;8.80;81.50
19665;DHT22;9980;51.020;7.772;2023-03-01T11:45:10;8.90;78.50
19665;DHT22;9980;51.020;7.772;2023-03-01T11:48:01;9.00;80.00
19665;DHT22;9980;51.020;7.772;2023-03-01T11:50:41;9.10;78.60
19665;DHT22;9980;51.020;7.772;2023-03-01T11:53:42;9.20;77.80
19665;DHT22;9980;51.020;7.772;2023-03-01T11:56:31;9.20;77.60
19665;DHT22;9980;51.020;7.772;2023-03-01T12:02:10;9.30;77.10
19665;DHT22;9980;51.020;7.772;2023-03-01T12:08:07;9.50;76.60
19665;DHT22;9980;51.020;7.772;2023-03-01T12:20:51;9.80;75.00
19665;DHT22;9980;51.020;7.772;2023-03-01T12:27:42;9.90;74.80
19665;DHT22;9980;51.020;7.772;2023-03-01T12:30:38;10.00;75.60
19665;DHT22;9980;51.020;7.772;2023-03-01T12:39:24;10.20;73.90
19665;DHT22;9980;51.020;7.772;2023-03-01T12:42:35;10.30;74.40
19665;DHT22;9980;51.020;7.772;2023-03-01T12:48:37;10.40;73.30
19665;DHT22;9980;51.020;7.772;2023-03-01T12:51:13;10.50;72.90
19665;DHT22;9980;51.020;7.772;2023-03-01T12:53:46;10.50;72.30
19665;DHT22;9980;51.020;7.772;2023-03-01T12:56:26;10.50;73.40
19665;DHT22;9980;51.020;7.772;2023-03-01T12:59:15;10.50;73.40
19665;DHT22;9980;51.020;7.772;2023-03-01T13:08:01;10.60;71.00
19665;DHT22;9980;51.020;7.772;2023-03-01T13:11:20;10.70;70.00
19665;DHT22;9980;51.020;7.772;2023-03-01T13:13:48;10.70;70.80
19665;DHT22;9980;51.020;7.772;2023-03-01T13:19:10;10.70;69.40
19665;DHT22;9980;51.020;7.772;2023-03-01T13:21:43;10.80;67.80
19665;DHT22;9980;51.020;7.772;2023-03-01T13:32:38;10.90;68.60
19665;DHT22;9980;51.020;7.772;2023-03-01T13:37:46;10.90;68.70
19665;DHT22;9980;51.020;7.772;2023-03-01T13:42:47;11.10;67.80
19665;DHT22;9980;51.020;7.772;2023-03-01T13:45:39;11.10;67.10
19665;DHT22;9980;51.020;7.772;2023-03-01T13:48:14;11.10;66.60
19665;DHT22;9980;51.020;7.772;2023-03-01T13:51:03;11.10;66.20
19665;DHT22;9980;51.020;7.772;2023-03-01T13:53:35;11.20;66.30
19665;DHT22;9980;51.020;7.772;2023-03-01T13:56:12;11.20;66.00
19665;DHT22;9980;51.020;7.772;2023-03-01T13:58:50;11.20;65.30
19665;DHT22;9980;51.020;7.772;2023-03-01T14:01:40;11.20;66.50
19665;DHT22;9980;51.020;7.772;2023-03-01T14:04:31;11.20;66.50
19665;DHT22;9980;51.020;7.772;2023-03-01T14:09:40;11.30;63.40
19665;DHT22;9980;51.020;7.772;2023-03-01T14:12:14;11.20;65.00
19665;DHT22;9980;51.020;7.772;2023-03-01T14:15:29;11.30;65.30
19665;DHT22;9980;51.020;7.772;2023-03-01T14:18:08;11.30;64.90
19665;DHT22;9980;51.020;7.772;2023-03-01T14:20:42;11.30;64.50
19665;DHT22;9980;51.020;7.772;2023-03-01T14:23:14;11.30;66.20
19665;DHT22;9980;51.020;7.772;2023-03-01T14:25:57;11.30;65.30
19665;DHT22;9980;51.020;7.772;2023-03-01T14:30:56;11.30;65.10
19665;DHT22;9980;51.020;7.772;2023-03-01T14:33:34;11.30;64.90
19665;DHT22;9980;51.020;7.772;2023-03-01T14:36:09;11.30;64.90
19665;DHT22;9980;51.020;7.772;2023-03-01T14:38:40;11.30;65.00
19665;DHT22;9980;51.020;7.772;2023-03-01T14:41:11;11.30;64.90
19665;DHT22;9980;51.020;7.772;2023-03-01T14:43:45;11.30;64.60
19665;DHT22;9980;51.020;7.772;2023-03-01T14:46:32;11.30;63.00
19665;DHT22;9980;51.020;7.772;2023-03-01T14:52:02;11.20;63.50
19665;DHT22;9980;51.020;7.772;2023-03-01T14:54:41;11.20;62.80
19665;DHT22;9980;51.020;7.772;2023-03-01T14:57:16;11.10;62.50
19665;DHT22;9980;51.020;7.772;2023-03-01T14:59:55;11.10;63.70
19665;DHT22;9980;51.020;7.772;2023-03-01T15:02:27;11.10;62.60
19665;DHT22;9980;51.020;7.772;2023-03-01T15:04:58;11.00;63.10
19665;DHT22;9980;51.020;7.772;2023-03-01T15:07:31;11.00;63.00
19665;DHT22;9980;51.020;7.772;2023-03-01T15:10:04;10.90;63.80
19665;DHT22;9980;51.020;7.772;2023-03-01T15:12:38;10.90;63.70
19665;DHT22;9980;51.020;7.772;2023-03-01T15:15:31;10.90;64.10
19665;DHT22;9980;51.020;7.772;2023-03-01T15:18:03;10.80;63.70
19665;DHT22;9980;51.020;7.772;2023-03-01T15:20:41;10.80;64.50
19665;DHT22;9980;51.020;7.772;2023-03-01T15:23:29;10.80;64.30
19665;DHT22;9980;51.020;7.772;2023-03-01T15:25:57;10.70;63.30
19665;DHT22;9980;51.020;7.772;2023-03-01T15:28:33;10.70;64.30
19665;DHT22;9980;51.020;7.772;2023-03-01T15:31:22;10.60;63.50
19665;DHT22;9980;51.020;7.772;2023-03-01T15:33:51;10.60;63.60
19665;DHT22;9980;51.020;7.772;2023-03-01T15:36:41;10.50;63.40
19665;DHT22;9980;51.020;7.772;2023-03-01T15:39:33;10.50;63.20
19665;DHT22;9980;51.020;7.772;2023-03-01T15:42:12;10.40;63.50
19665;DHT22;9980;51.020;7.772;2023-03-01T15:47:55;10.30;63.40
19665;DHT22;9980;51.020;7.772;2023-03-01T15:50:35;10.30;63.50
19665;DHT22;9980;51.020;7.772;2023-03-01T15:53:11;10.20;64.10
19665;DHT22;9980;51.020;7.772;2023-03-01T15:55:43;10.10;64.00
19665;DHT22;9980;51.020;7.772;2023-03-01T15:58:21;10.10;64.50
19665;DHT22;9980;51.020;7.772;2023-03-01T16:00:50;10.10;64.20
19665;DHT22;9980;51.020;7.772;2023-03-01T16:03:28;10.00;63.70
19665;DHT22;9980;51.020;7.772;2023-03-01T16:05:55;10.00;64.30
19665;DHT22;9980;51.020;7.772;2023-03-01T16:08:23;9.90;65.00
19665;DHT22;9980;51.020;7.772;2023-03-01T16:10:50;9.90;64.80
19665;DHT22;9980;51.020;7.772;2023-03-01T16:13:18;9.80;64.90
19665;DHT22;9980;51.020;7.772;2023-03-01T16:15:45;9.80;65.40
19665;DHT22;9980;51.020;7.772;2023-03-01T16:18:13;9.70;65.30
19665;DHT22;9980;51.020;7.772;2023-03-01T16:20:40;9.70;65.60
19665;DHT22;9980;51.020;7.772;2023-03-01T16:23:09;9.60;65.30
19665;DHT22;9980;51.020;7.772;2023-03-01T16:25:37;9.60;65.60
19665;DHT22;9980;51.020;7.772;2023-03-01T16:28:04;9.50;65.50
19665;DHT22;9980;51.020;7.772;2023-03-01T16:30:36;9.50;65.20
19665;DHT22;9980;51.020;7.772;2023-03-01T16:33:05;9.40;65.50
19665;DHT22;9980;51.020;7.772;2023-03-01T16:35:52;9.40;65.50
19665;DHT22;9980;51.020;7.772;2023-03-01T16:38:19;9.30;65.40
19665;DHT22;9980;51.020;7.772;2023-03-01T16:40:51;9.20;65.50
19665;DHT22;9980;51.020;7.772;2023-03-01T16:43:18;9.20;64.80
19665;DHT22;9980;51.020;7.772;2023-03-01T16:45:45;9.10;65.00
19665;DHT22;9980;51.020;7.772;2023-03-01T16:48:13;9.00;65.50
19665;DHT22;9980;51.020;7.772;2023-03-01T16:50:40;9.00;65.80
19665;DHT22;9980;51.020;7.772;2023-03-01T16:53:07;8.90;65.90
19665;DHT22;9980;51.020;7.772;2023-03-01T16:55:35;8.80;66.20
19665;DHT22;9980;51.020;7.772;2023-03-01T16:58:02;8.70;65.50
19665;DHT22;9980;51.020;7.772;2023-03-01T17:00:31;8.70;65.40
19665;DHT22;9980;51.020;7.772;2023-03-01T17:02:57;8.60;65.80
19665;DHT22;9980;51.020;7.772;2023-03-01T17:05:24;8.50;65.70
19665;DHT22;9980;51.020;7.772;2023-03-01T17:07:52;8.50;65.50
19665;DHT22;9980;51.020;7.772;2023-03-01T17:10:22;8.40;66.00
19665;DHT22;9980;51.020;7.772;2023-03-01T17:12:49;8.30;66.00
19665;DHT22;9980;51.020;7.772;2023-03-01T17:15:16;8.30;66.50
19665;DHT22;9980;51.020;7.772;2023-03-01T17:17:43;8.20;66.80
19665;DHT22;9980;51.020;7.772;2023-03-01T17:20:10;8.10;67.00
19665;DHT22;9980;51.020;7.772;2023-03-01T17:22:37;8.10;67.10
19665;DHT22;9980;51.020;7.772;2023-03-01T17:25:08;8.00;67.30
19665;DHT22;9980;51.020;7.772;2023-03-01T17:27:37;7.90;67.30
19665;DHT22;9980;51.020;7.772;2023-03-01T17:30:06;7.90;67.50
19665;DHT22;9980;51.020;7.772;2023-03-01T17:32:35;7.80;67.70
19665;DHT22;9980;51.020;7.772;2023-03-01T17:35:03;7.70;67.60
19665;DHT22;9980;51.020;7.772;2023-03-01T17:37:30;7.60;68.00
19665;DHT22;9980;51.020;7.772;2023-03-01T17:39:57;7.50;68.40
19665;DHT22;9980;51.020;7.772;2023-03-01T17:42:24;7.50;68.50
19665;DHT22;9980;51.020;7.772;2023-03-01T17:44:51;7.40;68.60
19665;DHT22;9980;51.020;7.772;2023-03-01T17:47:18;7.30;69.20
19665;DHT22;9980;51.020;7.772;2023-03-01T17:49:45;7.30;69.30
19665;DHT22;9980;51.020;7.772;2023-03-01T17:52:11;7.20;70.30
19665;DHT22;9980;51.020;7.772;2023-03-01T17:54:38;7.10;70.40
19665;DHT22;9980;51.020;7.772;2023-03-01T17:57:05;7.10;70.90
19665;DHT22;9980;51.020;7.772;2023-03-01T17:59:35;7.00;71.50